createdAt,value
2022-10-14T00:00:20.308Z,20.50
2022-10-14T00:02:47.807Z,20.42
2022-10-14T00:05:14.924Z,20.48
2022-10-14T00:07:42.079Z,20.60
2022-10-14T00:10:09.494Z,20.38
2022-10-14T00:12:36.625Z,20.25
2022-10-14T00:15:03.883Z,20.42
2022-10-14T00:17:31.278Z,20.38
2022-10-14T00:19:59.323Z,20.30
2022-10-14T00:22:26.438Z,20.23
2022-10-14T00:24:53.848Z,20.19
2022-10-14T00:27:21.111Z,20.16
2022-10-14T00:29:48.456Z,20.29
2022-10-14T00:32:15.842Z,20.27
2022-10-14T00:34:43.041Z,20.47
2022-10-14T00:37:10.150Z,20.32
2022-10-14T00:39:37.551Z,20.47
2022-10-14T00:42:04.666Z,20.52
2022-10-14T00:44:31.711Z,20.39
2022-10-14T00:46:59.336Z,20.44
2022-10-14T00:49:27.726Z,20.38
2022-10-14T00:52:01.934Z,20.33
2022-10-14T00:54:32.525Z,20.38
2022-10-14T00:56:59.723Z,20.25
2022-10-14T00:59:26.958Z,20.45
2022-10-14T01:01:54.345Z,20.31
2022-10-14T01:04:21.470Z,20.35
2022-10-14T01:06:54.606Z,20.39
2022-10-14T01:09:29.569Z,20.52
2022-10-14T01:12:28.184Z,20.35
2022-10-14T01:15:15.043Z,20.26
2022-10-14T01:17:54.114Z,20.29
2022-10-14T01:20:36.957Z,20.31
2022-10-14T01:23:12.980Z,20.25
2022-10-14T01:25:53.710Z,20.24
2022-10-14T01:28:28.139Z,20.32
2022-10-14T01:30:59.662Z,20.25
2022-10-14T01:33:27.537Z,20.27
2022-10-14T01:35:54.661Z,20.34
2022-10-14T01:38:32.436Z,20.42
2022-10-14T01:41:10.178Z,20.42
2022-10-14T01:43:38.017Z,20.45
2022-10-14T01:46:06.160Z,20.40
2022-10-14T01:48:34.345Z,20.45
2022-10-14T01:51:02.004Z,20.31
2022-10-14T01:53:30.598Z,20.48
2022-10-14T01:55:57.945Z,20.24
2022-10-14T01:58:26.695Z,20.21
2022-10-14T02:00:53.900Z,20.26
2022-10-14T02:03:21.556Z,20.33
2022-10-14T02:05:53.181Z,20.36
2022-10-14T02:08:39.524Z,20.22
2022-10-14T02:11:06.847Z,20.25
2022-10-14T02:13:34.353Z,20.32
2022-10-14T02:16:07.555Z,20.28
2022-10-14T02:18:49.373Z,20.24
2022-10-14T02:21:25.710Z,20.07
2022-10-14T02:24:18.325Z,20.10
2022-10-14T02:26:45.729Z,20.27
2022-10-14T02:29:13.171Z,20.32
2022-10-14T02:31:40.847Z,19.98
2022-10-14T02:34:09.108Z,20.23
2022-10-14T02:36:37.123Z,20.18
2022-10-14T02:39:05.068Z,20.17
2022-10-14T02:41:34.072Z,20.20
2022-10-14T02:44:01.310Z,20.24
2022-10-14T02:46:29.182Z,20.20
2022-10-14T02:48:56.593Z,20.21
2022-10-14T02:51:23.739Z,20.23
2022-10-14T02:53:50.879Z,20.24
2022-10-14T02:56:18.510Z,20.18
2022-10-14T02:58:45.975Z,20.16
2022-10-14T03:01:13.486Z,20.16
2022-10-14T03:03:40.922Z,19.89
2022-10-14T03:06:08.267Z,20.07
2022-10-14T03:08:35.637Z,19.90
2022-10-14T03:11:04.530Z,20.13
2022-10-14T03:13:32.121Z,20.07
2022-10-14T03:15:59.927Z,19.95
2022-10-14T03:18:27.384Z,20.09
2022-10-14T03:20:56.786Z,19.99
2022-10-14T03:23:24.419Z,20.17
2022-10-14T03:25:53.276Z,20.12
2022-10-14T03:28:21.201Z,19.93
2022-10-14T03:30:48.534Z,20.10
2022-10-14T03:33:17.824Z,20.02
2022-10-14T03:35:47.879Z,20.21
2022-10-14T03:38:16.505Z,20.16
2022-10-14T03:40:43.814Z,20.18
2022-10-14T03:43:11.386Z,20.28
2022-10-14T03:45:39.986Z,20.17
2022-10-14T03:48:09.540Z,20.29
2022-10-14T03:50:39.698Z,20.34
2022-10-14T03:53:07.413Z,19.98
2022-10-14T03:55:35.016Z,20.05
2022-10-14T03:58:03.327Z,20.11
2022-10-14T04:00:30.798Z,20.31
2022-10-14T04:02:59.913Z,20.36
2022-10-14T04:05:32.544Z,20.32
2022-10-14T04:08:00.959Z,20.23
2022-10-14T04:10:28.527Z,20.22
2022-10-14T04:12:56.128Z,20.12
2022-10-14T04:15:24.343Z,20.21
2022-10-14T04:17:52.648Z,20.24
2022-10-14T04:20:20.418Z,20.24
2022-10-14T04:22:48.274Z,20.18
2022-10-14T04:25:16.433Z,20.29
2022-10-14T04:27:49.485Z,20.11
2022-10-14T04:30:17.590Z,20.29
2022-10-14T04:32:46.332Z,20.17
2022-10-14T04:35:13.593Z,20.33
2022-10-14T04:37:41.670Z,20.16
2022-10-14T04:40:09.380Z,20.05
2022-10-14T04:42:38.996Z,19.84
2022-10-14T04:45:07.446Z,19.77
2022-10-14T04:47:36.914Z,19.73
2022-10-14T04:50:04.175Z,19.80
2022-10-14T04:52:31.788Z,19.82
2022-10-14T04:54:59.619Z,19.86
2022-10-14T04:57:29.091Z,19.85
2022-10-14T04:59:56.557Z,19.51
2022-10-14T05:02:25.134Z,19.76
2022-10-14T05:04:52.465Z,19.86
2022-10-14T05:07:20.098Z,19.74
2022-10-14T05:09:51.163Z,19.92
2022-10-14T05:12:21.077Z,20.03
2022-10-14T05:14:49.676Z,20.05
2022-10-14T05:17:18.313Z,20.01
2022-10-14T05:19:46.264Z,19.78
2022-10-14T05:22:13.878Z,19.84
2022-10-14T05:24:41.909Z,19.58
2022-10-14T05:27:09.302Z,19.73
2022-10-14T05:29:36.754Z,19.78
2022-10-14T05:32:04.059Z,19.39
2022-10-14T05:34:32.069Z,19.86
2022-10-14T05:36:59.556Z,20.13
2022-10-14T05:39:29.472Z,19.89
2022-10-14T05:41:57.116Z,19.99
2022-10-14T05:44:24.820Z,19.74
2022-10-14T05:46:52.578Z,19.56
2022-10-14T05:49:20.001Z,19.74
2022-10-14T05:51:47.976Z,19.83
2022-10-14T05:54:15.681Z,19.90
2022-10-14T05:56:43.488Z,20.10
2022-10-14T05:59:10.961Z,19.80
2022-10-14T06:01:38.413Z,19.91
2022-10-14T06:04:05.790Z,19.51
2022-10-14T06:06:32.960Z,19.62
2022-10-14T06:09:00.088Z,18.69
2022-10-14T06:11:27.518Z,18.90
2022-10-14T06:13:54.645Z,18.50
2022-10-14T06:16:21.830Z,17.36
2022-10-14T06:18:53.589Z,18.45
2022-10-14T06:21:21.866Z,19.07
2022-10-14T06:23:49.273Z,18.40
2022-10-14T06:26:16.381Z,18.97
2022-10-14T06:28:43.750Z,19.15
2022-10-14T06:31:11.171Z,19.64
2022-10-14T06:33:38.279Z,19.94
2022-10-14T06:36:05.830Z,19.82
2022-10-14T06:38:33.503Z,20.12
2022-10-14T06:41:01.017Z,19.92
2022-10-14T06:43:28.146Z,19.83
2022-10-14T06:45:56.888Z,20.35
2022-10-14T06:48:23.999Z,20.22
2022-10-14T06:50:51.115Z,20.21
2022-10-14T06:53:18.570Z,20.71
2022-10-14T06:55:45.739Z,19.75
2022-10-14T06:58:12.878Z,19.72
2022-10-14T07:00:44.291Z,18.73
2022-10-14T07:03:14.484Z,19.54
2022-10-14T07:05:41.864Z,18.42
2022-10-14T07:08:11.415Z,18.96
2022-10-14T07:10:42.353Z,19.33
2022-10-14T07:13:09.477Z,19.01
2022-10-14T07:15:37.499Z,19.46
2022-10-14T07:18:05.368Z,19.02
2022-10-14T07:20:33.461Z,19.17
2022-10-14T07:23:00.581Z,19.55
2022-10-14T07:25:27.960Z,19.58
2022-10-14T07:27:55.104Z,19.01
2022-10-14T07:30:22.450Z,19.65
2022-10-14T07:32:49.857Z,18.68
2022-10-14T07:35:17.203Z,19.64
2022-10-14T07:37:44.426Z,19.50
2022-10-14T07:40:12.189Z,18.72
2022-10-14T07:42:39.346Z,19.32
2022-10-14T07:45:06.930Z,19.08
2022-10-14T07:47:34.380Z,19.12
2022-10-14T07:50:04.498Z,19.74
2022-10-14T07:52:31.609Z,20.16
2022-10-14T07:54:58.985Z,19.99
2022-10-14T07:57:27.707Z,19.71
2022-10-14T07:59:54.845Z,19.76
2022-10-14T08:02:23.485Z,20.12
2022-10-14T08:04:56.368Z,19.54
2022-10-14T08:07:29.378Z,19.54
2022-10-14T08:09:56.741Z,20.13
2022-10-14T08:12:24.521Z,19.87
2022-10-14T08:14:52.492Z,20.14
2022-10-14T08:17:20.365Z,20.64
2022-10-14T08:19:49.115Z,21.31
2022-10-14T08:22:16.231Z,20.95
2022-10-14T08:24:44.388Z,20.48
2022-10-14T08:27:11.562Z,20.24
2022-10-14T08:29:38.685Z,20.70
2022-10-14T08:32:06.085Z,20.74
2022-10-14T08:34:33.656Z,20.45
2022-10-14T08:37:01.559Z,20.94
2022-10-14T08:39:28.942Z,21.29
2022-10-14T08:42:12.539Z,21.17
2022-10-14T08:44:44.084Z,20.87
2022-10-14T08:47:12.993Z,20.07
2022-10-14T08:49:40.585Z,19.75
2022-10-14T08:52:07.690Z,20.19
2022-10-14T08:54:43.295Z,20.57
2022-10-14T08:57:17.985Z,20.56
2022-10-14T08:59:45.105Z,20.54
2022-10-14T09:02:34.191Z,20.39
2022-10-14T09:05:02.258Z,20.60
2022-10-14T09:07:29.709Z,20.97
2022-10-14T09:09:57.399Z,21.44
2022-10-14T09:12:26.608Z,21.26
2022-10-14T09:15:14.193Z,20.60
2022-10-14T09:17:45.926Z,21.62
2022-10-14T09:20:20.676Z,22.38
2022-10-14T09:22:53.706Z,22.22
2022-10-14T09:25:21.732Z,21.99
2022-10-14T09:27:48.859Z,21.96
2022-10-14T09:30:16.165Z,21.66
2022-10-14T09:32:44.422Z,21.76
2022-10-14T09:35:25.041Z,22.55
2022-10-14T09:37:52.664Z,22.66
2022-10-14T09:40:32.608Z,22.72
2022-10-14T09:43:09.258Z,23.01
2022-10-14T09:45:54.587Z,23.10
2022-10-14T09:48:37.774Z,22.81
2022-10-14T09:53:41.122Z,23.17
2022-10-14T09:56:08.755Z,23.13
2022-10-14T09:58:43.486Z,21.38
2022-10-14T10:01:19.097Z,23.12
2022-10-14T10:03:47.149Z,22.72
2022-10-14T10:06:15.606Z,21.46
2022-10-14T10:09:01.300Z,22.50
2022-10-14T10:11:37.584Z,21.85
2022-10-14T10:14:17.524Z,22.14
2022-10-14T10:16:44.967Z,22.50
2022-10-14T10:19:27.583Z,22.62
2022-10-14T10:21:55.590Z,21.69
2022-10-14T10:24:26.067Z,21.64
2022-10-14T10:26:56.170Z,22.37
2022-10-14T10:29:24.325Z,22.78
2022-10-14T10:32:10.186Z,22.24
2022-10-14T10:35:00.906Z,22.59
2022-10-14T10:37:28.698Z,22.70
2022-10-14T10:40:14.924Z,23.29
2022-10-14T10:42:48.820Z,23.38
2022-10-14T10:45:25.317Z,23.21
2022-10-14T10:47:55.179Z,23.48
2022-10-14T10:50:33.800Z,22.91
2022-10-14T10:53:15.376Z,23.38
2022-10-14T10:58:20.732Z,23.95
2022-10-14T11:00:50.226Z,24.48
2022-10-14T11:03:36.045Z,24.37
2022-10-14T11:06:03.361Z,23.87
2022-10-14T11:09:07.223Z,23.98
2022-10-14T11:11:59.981Z,24.28
2022-10-14T11:14:30.176Z,24.10
2022-10-14T11:17:17.854Z,24.48
2022-10-14T11:19:48.154Z,24.92
2022-10-14T11:22:16.929Z,24.83
2022-10-14T11:24:57.074Z,24.70
2022-10-14T11:27:43.113Z,25.22
2022-10-14T11:30:10.238Z,25.16
2022-10-14T11:32:41.277Z,23.53
2022-10-14T11:35:12.447Z,24.74
2022-10-14T11:37:39.821Z,24.70
2022-10-14T11:40:18.839Z,24.71
2022-10-14T11:42:47.125Z,24.48
2022-10-14T11:45:16.032Z,24.72
2022-10-14T11:47:47.808Z,24.19
2022-10-14T11:50:15.012Z,24.24
2022-10-14T11:52:47.043Z,24.67
2022-10-14T11:55:16.713Z,24.79
2022-10-14T11:57:51.058Z,23.67
2022-10-14T12:00:20.557Z,24.40
2022-10-14T12:03:10.369Z,24.53
2022-10-14T12:05:45.385Z,25.01
2022-10-14T12:08:33.278Z,23.68
2022-10-14T12:11:04.626Z,22.96
2022-10-14T12:13:33.272Z,24.23
2022-10-14T12:16:01.292Z,23.40
2022-10-14T12:18:28.677Z,23.90
2022-10-14T12:20:58.900Z,24.12
2022-10-14T12:23:39.654Z,24.40
2022-10-14T12:26:11.148Z,24.72
2022-10-14T12:28:38.314Z,25.22
2022-10-14T12:31:25.860Z,24.68
2022-10-14T12:34:11.625Z,23.29
2022-10-14T12:36:39.012Z,24.65
2022-10-14T12:39:18.704Z,25.20
2022-10-14T12:41:55.583Z,24.79
2022-10-14T12:44:23.374Z,24.39
2022-10-14T12:46:52.047Z,23.69
2022-10-14T12:49:20.610Z,24.62
2022-10-14T12:51:55.238Z,24.99
2022-10-14T12:54:22.580Z,25.10
2022-10-14T12:56:54.799Z,25.21
2022-10-14T12:59:42.208Z,25.13
2022-10-14T13:02:25.589Z,25.09
2022-10-14T13:04:53.534Z,25.17
2022-10-14T13:07:42.586Z,25.37
2022-10-14T13:10:26.355Z,25.35
2022-10-14T13:12:53.783Z,25.30
2022-10-14T13:15:29.821Z,24.73
2022-10-14T13:17:57.226Z,25.17
2022-10-14T13:20:33.611Z,23.68
2022-10-14T13:23:19.764Z,24.30
2022-10-14T13:25:49.192Z,24.21
2022-10-14T13:28:21.755Z,24.96
2022-10-14T13:30:59.766Z,24.44
2022-10-14T13:33:32.171Z,23.84
2022-10-14T13:36:03.963Z,24.54
2022-10-14T13:38:31.668Z,25.29
2022-10-14T13:40:58.772Z,24.68
2022-10-14T13:43:29.792Z,25.58
2022-10-14T13:45:57.431Z,25.32
2022-10-14T13:48:29.759Z,25.42
2022-10-14T13:51:17.275Z,25.23
2022-10-14T13:53:53.071Z,24.08
2022-10-14T13:56:21.619Z,25.03
2022-10-14T13:58:49.625Z,25.22
2022-10-14T14:01:17.769Z,25.31
2022-10-14T14:03:45.512Z,25.09
2022-10-14T14:06:14.504Z,25.19
2022-10-14T14:08:50.931Z,24.67
2022-10-14T14:11:25.692Z,25.19
2022-10-14T14:14:00.266Z,25.30
2022-10-14T14:16:48.946Z,25.10
2022-10-14T14:19:19.285Z,25.38
2022-10-14T14:21:46.680Z,25.42
2022-10-14T14:24:18.834Z,25.22
2022-10-14T14:26:50.195Z,25.08
2022-10-14T14:29:18.952Z,25.37
2022-10-14T14:34:35.047Z,25.02
2022-10-14T14:37:10.933Z,25.16
2022-10-14T14:39:59.723Z,25.18
2022-10-14T14:42:27.386Z,25.17
2022-10-14T14:44:55.674Z,25.27
2022-10-14T14:47:23.007Z,25.19
2022-10-14T14:49:57.500Z,25.09
2022-10-14T14:52:38.652Z,25.40
2022-10-14T14:55:07.170Z,25.11
2022-10-14T14:57:34.289Z,25.13
2022-10-14T15:00:03.749Z,24.94
2022-10-14T15:02:31.380Z,24.60
2022-10-14T15:05:02.899Z,24.81
2022-10-14T15:07:30.441Z,24.83
2022-10-14T15:10:00.989Z,24.84
2022-10-14T15:12:42.487Z,24.92
2022-10-14T15:15:26.311Z,25.00
2022-10-14T15:18:13.829Z,24.60
2022-10-14T15:20:44.390Z,25.05
2022-10-14T15:23:32.776Z,25.07
2022-10-14T15:26:00.205Z,25.16
2022-10-14T15:28:32.080Z,24.86
2022-10-14T15:31:04.847Z,24.93
2022-10-14T15:33:32.972Z,24.95
2022-10-14T15:36:01.759Z,25.05
2022-10-14T15:38:29.406Z,24.93
2022-10-14T15:40:56.556Z,24.92
2022-10-14T15:43:24.948Z,24.78
2022-10-14T15:46:14.016Z,24.83
2022-10-14T15:48:42.423Z,24.86
2022-10-14T15:51:11.181Z,24.82
2022-10-14T15:53:38.286Z,24.61
2022-10-14T15:56:05.776Z,24.61
2022-10-14T15:58:33.722Z,24.64
2022-10-14T16:01:02.105Z,24.60
2022-10-14T16:03:34.559Z,24.53
2022-10-14T16:06:03.105Z,24.52
2022-10-14T16:08:30.476Z,24.43
2022-10-14T16:10:59.157Z,24.44
2022-10-14T16:13:26.272Z,24.41
2022-10-14T16:15:54.149Z,24.23
2022-10-14T16:18:23.310Z,24.06
2022-10-14T16:20:51.937Z,23.91
2022-10-14T16:23:20.234Z,24.20
2022-10-14T16:25:49.083Z,24.03
2022-10-14T16:28:18.209Z,24.07
2022-10-14T16:30:48.697Z,24.01
2022-10-14T16:33:19.270Z,24.15
2022-10-14T16:35:47.317Z,24.05
2022-10-14T16:38:14.604Z,23.85
2022-10-14T16:40:41.716Z,23.93
2022-10-14T16:43:10.152Z,23.82
2022-10-14T16:45:37.487Z,23.88
2022-10-14T16:48:04.609Z,23.97
2022-10-14T16:50:32.041Z,24.02
2022-10-14T16:53:18.037Z,24.07
2022-10-14T16:55:45.535Z,24.12
2022-10-14T16:58:12.669Z,24.08
2022-10-14T17:00:39.810Z,24.05
2022-10-14T17:03:10.476Z,24.00
2022-10-14T17:05:37.600Z,23.77
2022-10-14T17:08:07.810Z,23.92
2022-10-14T17:10:35.200Z,23.97
2022-10-14T17:13:02.302Z,23.95
2022-10-14T17:15:30.736Z,23.70
2022-10-14T17:17:58.113Z,23.67
2022-10-14T17:20:26.303Z,23.79
2022-10-14T17:22:53.428Z,23.71
2022-10-14T17:25:20.843Z,23.51
2022-10-14T17:27:47.956Z,23.59
2022-10-14T17:30:15.490Z,23.68
2022-10-14T17:32:43.071Z,23.63
2022-10-14T17:35:14.357Z,23.57
2022-10-14T17:37:43.671Z,23.52
2022-10-14T17:40:11.305Z,23.54
2022-10-14T17:42:38.919Z,23.52
2022-10-14T17:45:07.127Z,23.51
2022-10-14T17:47:34.261Z,23.18
2022-10-14T17:50:01.451Z,23.19
2022-10-14T17:52:29.267Z,23.14
2022-10-14T17:54:59.016Z,23.26
2022-10-14T17:57:28.984Z,23.19
2022-10-14T17:59:56.129Z,23.30
2022-10-14T18:02:24.580Z,23.30
2022-10-14T18:04:52.010Z,23.17
2022-10-14T18:07:23.198Z,23.21
2022-10-14T18:09:51.686Z,23.22
2022-10-14T18:12:19.166Z,23.16
2022-10-14T18:14:46.322Z,23.20
2022-10-14T18:17:13.461Z,23.16
2022-10-14T18:19:42.011Z,23.05
2022-10-14T18:22:11.215Z,23.11
2022-10-14T18:24:39.335Z,23.09
2022-10-14T18:27:07.031Z,23.14
2022-10-14T18:29:34.331Z,23.06
2022-10-14T18:32:01.514Z,23.05
2022-10-14T18:34:28.976Z,23.06
2022-10-14T18:36:56.494Z,22.89
2022-10-14T18:39:24.250Z,22.96
2022-10-14T18:41:52.099Z,22.97
2022-10-14T18:44:19.378Z,23.00
2022-10-14T18:46:47.673Z,22.93
2022-10-14T18:49:15.258Z,22.96
2022-10-14T18:51:43.343Z,22.94
2022-10-14T18:54:13.125Z,22.89
2022-10-14T18:56:40.823Z,22.90
2022-10-14T18:59:09.838Z,22.91
2022-10-14T19:01:38.019Z,22.78
2022-10-14T19:04:06.239Z,22.76
2022-10-14T19:06:33.716Z,22.79
2022-10-14T19:09:04.266Z,22.73
2022-10-14T19:11:32.431Z,22.72
2022-10-14T19:14:00.707Z,22.75
2022-10-14T19:16:29.235Z,22.65
2022-10-14T19:19:18.618Z,22.56
2022-10-14T19:21:46.635Z,22.72
2022-10-14T19:24:14.599Z,22.55
2022-10-14T19:26:43.443Z,22.56
2022-10-14T19:29:11.940Z,22.50
2022-10-14T19:31:40.041Z,22.32
2022-10-14T19:34:08.043Z,22.01
2022-10-14T19:36:36.689Z,22.05
2022-10-14T19:39:05.598Z,21.99
2022-10-14T19:41:34.591Z,22.22
2022-10-14T19:44:02.195Z,22.00
2022-10-14T19:46:30.449Z,22.13
2022-10-14T19:49:04.837Z,22.22
2022-10-14T19:51:33.136Z,22.13
2022-10-14T19:54:00.404Z,22.29
2022-10-14T19:56:28.371Z,22.31
2022-10-14T19:58:56.646Z,22.26
2022-10-14T20:01:24.586Z,22.29
2022-10-14T20:03:52.670Z,22.15
2022-10-14T20:06:20.370Z,22.23
2022-10-14T20:08:48.577Z,22.01
2022-10-14T20:11:17.571Z,21.99
2022-10-14T20:13:44.977Z,21.72
2022-10-14T20:16:12.523Z,21.75
2022-10-14T20:18:39.962Z,21.64
2022-10-14T20:21:07.389Z,21.60
2022-10-14T20:23:35.189Z,21.45
2022-10-14T20:26:03.285Z,21.61
2022-10-14T20:28:30.473Z,21.66
2022-10-14T20:30:57.654Z,21.48
2022-10-14T20:33:25.405Z,21.74
2022-10-14T20:35:59.048Z,21.62
2022-10-14T20:38:26.541Z,21.57
2022-10-14T20:40:53.654Z,21.34
2022-10-14T20:43:21.548Z,21.55
2022-10-14T20:45:49.010Z,21.56
2022-10-14T20:48:16.241Z,21.53
2022-10-14T20:50:43.477Z,21.41
2022-10-14T20:53:10.927Z,21.18
2022-10-14T20:55:38.031Z,21.24
2022-10-14T20:58:05.154Z,20.93
2022-10-14T21:00:32.543Z,20.90
2022-10-14T21:02:59.656Z,20.83
2022-10-14T21:05:26.808Z,20.97
2022-10-14T21:07:54.342Z,20.83
2022-10-14T21:10:21.709Z,20.84
2022-10-14T21:12:49.101Z,20.94
2022-10-14T21:15:16.792Z,20.98
2022-10-14T21:17:47.704Z,21.12
2022-10-14T21:20:15.055Z,21.38
2022-10-14T21:22:42.541Z,21.13
2022-10-14T21:25:09.849Z,21.01
2022-10-14T21:27:37.023Z,21.13
2022-10-14T21:30:04.790Z,21.05
2022-10-14T21:32:32.088Z,21.31
2022-10-14T21:34:59.522Z,21.12
2022-10-14T21:37:26.974Z,21.20
2022-10-14T21:39:54.408Z,21.20
2022-10-14T21:42:21.867Z,21.10
2022-10-14T21:44:49.710Z,21.23
2022-10-14T21:47:16.845Z,21.16
2022-10-14T21:49:44.325Z,21.16
2022-10-14T21:52:12.044Z,21.22
2022-10-14T21:54:39.180Z,21.11
2022-10-14T21:57:06.489Z,21.40
2022-10-14T21:59:33.858Z,21.13
2022-10-14T22:02:00.967Z,21.07
2022-10-14T22:04:28.346Z,21.06
2022-10-14T22:06:55.649Z,21.10
2022-10-14T22:09:22.803Z,21.06
2022-10-14T22:11:50.540Z,20.93
2022-10-14T22:14:17.658Z,20.85
2022-10-14T22:16:47.625Z,20.78
2022-10-14T22:19:15.891Z,20.83
2022-10-14T22:21:43.238Z,20.98
2022-10-14T22:24:10.942Z,21.01
2022-10-14T22:26:38.456Z,21.04
2022-10-14T22:29:15.304Z,21.22
2022-10-14T22:31:42.679Z,21.24
2022-10-14T22:34:10.431Z,21.23
2022-10-14T22:36:37.604Z,21.13
2022-10-14T22:39:06.943Z,21.09
2022-10-14T22:41:35.713Z,21.07
2022-10-14T22:44:03.656Z,21.19
2022-10-14T22:46:31.907Z,21.17
2022-10-14T22:48:59.814Z,21.01
2022-10-14T22:51:31.373Z,21.13
2022-10-14T22:53:58.922Z,21.06
2022-10-14T22:56:27.493Z,20.95
2022-10-14T22:58:58.675Z,20.94
2022-10-14T23:01:27.961Z,21.02
2022-10-14T23:03:55.619Z,20.77
2022-10-14T23:06:22.793Z,20.67
2022-10-14T23:08:50.315Z,20.88
2022-10-14T23:11:18.383Z,20.70
2022-10-14T23:13:45.889Z,20.79
2022-10-14T23:16:14.457Z,20.70
2022-10-14T23:21:13.976Z,20.64
2022-10-14T23:23:41.312Z,20.73
2022-10-14T23:26:09.107Z,20.77
2022-10-14T23:28:36.626Z,20.68
2022-10-14T23:31:13.855Z,20.63
2022-10-14T23:33:41.372Z,20.61
2022-10-14T23:36:10.737Z,20.55
2022-10-14T23:38:37.827Z,20.58
2022-10-14T23:41:05.758Z,20.52
2022-10-14T23:43:33.220Z,20.47
2022-10-14T23:46:00.337Z,20.48
2022-10-14T23:48:28.047Z,20.49
2022-10-14T23:50:55.234Z,20.42
2022-10-14T23:53:22.534Z,20.32
2022-10-14T23:55:49.910Z,20.36
2022-10-14T23:58:17.050Z,20.42
